sensor_id;sensor_type;location;lat;lon;timestamp;P1;durP1;ratioP1;P2;durP2;ratioP2
21943;SDS011;11136;48.778;9.126;2023-12-07T00:00:08;7.18;;;5.30;;
21943;SDS011;11136;48.778;9.126;2023-12-07T00:02:34;8.55;;;5.32;;
21943;SDS011;11136;48.778;9.126;2023-12-07T00:04:59;7.75;;;5.00;;
21943;SDS011;11136;48.778;9.126;2023-12-07T00:07:24;7.20;;;4.60;;
21943;SDS011;11136;48.778;9.126;2023-12-07T00:09:49;7.00;;;4.57;;
21943;SDS011;11136;48.778;9.126;2023-12-07T00:12:15;8.15;;;4.70;;
21943;SDS011;11136;48.778;9.126;2023-12-07T00:14:40;6.70;;;4.05;;
21943;SDS011;11136;48.778;9.126;2023-12-07T00:17:05;10.68;;;5.45;;
21943;SDS011;11136;48.778;9.126;2023-12-07T00:19:30;5.75;;;4.65;;
21943;SDS011;11136;48.778;9.126;2023-12-07T00:21:56;6.53;;;4.60;;
21943;SDS011;11136;48.778;9.126;2023-12-07T00:24:21;7.00;;;4.88;;
21943;SDS011;11136;48.778;9.126;2023-12-07T00:26:46;9.45;;;5.32;;
21943;SDS011;11136;48.778;9.126;2023-12-07T00:29:12;8.60;;;4.25;;
21943;SDS011;11136;48.778;9.126;2023-12-07T00:31:37;8.00;;;4.57;;
21943;SDS011;11136;48.778;9.126;2023-12-07T00:34:02;7.68;;;4.47;;
21943;SDS011;11136;48.778;9.126;2023-12-07T00:36:27;5.38;;;4.28;;
21943;SDS011;11136;48.778;9.126;2023-12-07T00:38:53;11.57;;;4.82;;
21943;SDS011;11136;48.778;9.126;2023-12-07T00:41:18;8.15;;;4.53;;
21943;SDS011;11136;48.778;9.126;2023-12-07T00:43:43;8.38;;;4.88;;
21943;SDS011;11136;48.778;9.126;2023-12-07T00:46:09;6.35;;;4.70;;
21943;SDS011;11136;48.778;9.126;2023-12-07T00:48:35;5.35;;;4.40;;
21943;SDS011;11136;48.778;9.126;2023-12-07T00:51:00;7.72;;;4.82;;
21943;SDS011;11136;48.778;9.126;2023-12-07T00:53:25;6.57;;;4.70;;
21943;SDS011;11136;48.778;9.126;2023-12-07T00:55:51;10.43;;;4.63;;
21943;SDS011;11136;48.778;9.126;2023-12-07T00:58:16;6.45;;;4.13;;
21943;SDS011;11136;48.778;9.126;2023-12-07T01:00:41;10.13;;;5.40;;
21943;SDS011;11136;48.778;9.126;2023-12-07T01:03:06;9.27;;;5.00;;
21943;SDS011;11136;48.778;9.126;2023-12-07T01:05:32;8.50;;;4.03;;
21943;SDS011;11136;48.778;9.126;2023-12-07T01:07:57;9.13;;;4.60;;
21943;SDS011;11136;48.778;9.126;2023-12-07T01:10:22;5.20;;;4.03;;
21943;SDS011;11136;48.778;9.126;2023-12-07T01:12:47;7.20;;;4.25;;
21943;SDS011;11136;48.778;9.126;2023-12-07T01:15:13;8.13;;;4.28;;
21943;SDS011;11136;48.778;9.126;2023-12-07T01:17:38;7.40;;;4.88;;
21943;SDS011;11136;48.778;9.126;2023-12-07T01:20:04;5.63;;;3.92;;
21943;SDS011;11136;48.778;9.126;2023-12-07T01:22:36;5.28;;;3.85;;
21943;SDS011;11136;48.778;9.126;2023-12-07T01:25:02;7.28;;;3.75;;
21943;SDS011;11136;48.778;9.126;2023-12-07T01:27:27;7.32;;;4.28;;
21943;SDS011;11136;48.778;9.126;2023-12-07T01:29:52;5.93;;;4.03;;
21943;SDS011;11136;48.778;9.126;2023-12-07T01:32:18;6.95;;;4.47;;
21943;SDS011;11136;48.778;9.126;2023-12-07T01:34:43;7.28;;;4.53;;
21943;SDS011;11136;48.778;9.126;2023-12-07T01:37:08;4.85;;;3.60;;
21943;SDS011;11136;48.778;9.126;2023-12-07T01:39:34;5.20;;;3.58;;
21943;SDS011;11136;48.778;9.126;2023-12-07T01:41:59;6.47;;;3.90;;
21943;SDS011;11136;48.778;9.126;2023-12-07T01:44:25;6.05;;;4.13;;
21943;SDS011;11136;48.778;9.126;2023-12-07T01:46:52;7.28;;;3.72;;
21943;SDS011;11136;48.778;9.126;2023-12-07T01:49:18;10.10;;;4.00;;
21943;SDS011;11136;48.778;9.126;2023-12-07T01:51:43;7.63;;;4.20;;
21943;SDS011;11136;48.778;9.126;2023-12-07T01:54:09;8.85;;;3.90;;
21943;SDS011;11136;48.778;9.126;2023-12-07T01:56:34;6.45;;;4.15;;
21943;SDS011;11136;48.778;9.126;2023-12-07T01:58:59;6.97;;;3.95;;
21943;SDS011;11136;48.778;9.126;2023-12-07T02:01:25;8.45;;;4.40;;
21943;SDS011;11136;48.778;9.126;2023-12-07T02:03:50;5.45;;;3.63;;
21943;SDS011;11136;48.778;9.126;2023-12-07T02:06:15;5.53;;;3.92;;
21943;SDS011;11136;48.778;9.126;2023-12-07T02:08:43;6.88;;;4.25;;
21943;SDS011;11136;48.778;9.126;2023-12-07T02:11:09;5.60;;;4.22;;
21943;SDS011;11136;48.778;9.126;2023-12-07T02:13:36;6.57;;;4.63;;
21943;SDS011;11136;48.778;9.126;2023-12-07T02:16:03;5.40;;;3.63;;
21943;SDS011;11136;48.778;9.126;2023-12-07T02:18:48;5.97;;;3.70;;
21943;SDS011;11136;48.778;9.126;2023-12-07T02:21:30;5.72;;;3.88;;
21943;SDS011;11136;48.778;9.126;2023-12-07T02:24:03;6.57;;;4.28;;
21943;SDS011;11136;48.778;9.126;2023-12-07T02:26:34;4.63;;;3.53;;
21943;SDS011;11136;48.778;9.126;2023-12-07T02:28:59;5.93;;;3.65;;
21943;SDS011;11136;48.778;9.126;2023-12-07T02:31:25;7.97;;;4.10;;
21943;SDS011;11136;48.778;9.126;2023-12-07T02:33:50;4.38;;;3.63;;
21943;SDS011;11136;48.778;9.126;2023-12-07T02:36:15;5.50;;;3.78;;
21943;SDS011;11136;48.778;9.126;2023-12-07T02:38:45;5.20;;;3.88;;
21943;SDS011;11136;48.778;9.126;2023-12-07T02:41:11;5.68;;;3.90;;
21943;SDS011;11136;48.778;9.126;2023-12-07T02:43:38;5.88;;;4.10;;
21943;SDS011;11136;48.778;9.126;2023-12-07T02:46:04;5.85;;;3.63;;
21943;SDS011;11136;48.778;9.126;2023-12-07T02:48:29;5.63;;;3.70;;
21943;SDS011;11136;48.778;9.126;2023-12-07T02:50:55;7.72;;;4.00;;
21943;SDS011;11136;48.778;9.126;2023-12-07T02:53:20;5.75;;;3.90;;
21943;SDS011;11136;48.778;9.126;2023-12-07T02:55:45;6.95;;;4.25;;
21943;SDS011;11136;48.778;9.126;2023-12-07T02:58:11;8.60;;;3.95;;
21943;SDS011;11136;48.778;9.126;2023-12-07T03:00:36;6.82;;;3.90;;
21943;SDS011;11136;48.778;9.126;2023-12-07T03:03:01;6.25;;;4.05;;
21943;SDS011;11136;48.778;9.126;2023-12-07T03:05:27;5.15;;;3.63;;
21943;SDS011;11136;48.778;9.126;2023-12-07T03:07:52;6.13;;;3.90;;
21943;SDS011;11136;48.778;9.126;2023-12-07T03:10:17;10.27;;;4.35;;
21943;SDS011;11136;48.778;9.126;2023-12-07T03:12:42;8.05;;;4.75;;
21943;SDS011;11136;48.778;9.126;2023-12-07T03:15:08;5.97;;;3.92;;
21943;SDS011;11136;48.778;9.126;2023-12-07T03:17:35;6.75;;;4.30;;
21943;SDS011;11136;48.778;9.126;2023-12-07T03:20:00;4.40;;;3.38;;
21943;SDS011;11136;48.778;9.126;2023-12-07T03:22:25;5.93;;;4.03;;
21943;SDS011;11136;48.778;9.126;2023-12-07T03:24:51;5.13;;;3.50;;
21943;SDS011;11136;48.778;9.126;2023-12-07T03:27:17;6.05;;;4.00;;
21943;SDS011;11136;48.778;9.126;2023-12-07T03:29:43;5.63;;;3.90;;
21943;SDS011;11136;48.778;9.126;2023-12-07T03:32:08;4.82;;;3.55;;
21943;SDS011;11136;48.778;9.126;2023-12-07T03:34:33;5.95;;;3.78;;
21943;SDS011;11136;48.778;9.126;2023-12-07T03:36:59;8.75;;;4.60;;
21943;SDS011;11136;48.778;9.126;2023-12-07T03:39:24;5.38;;;3.53;;
21943;SDS011;11136;48.778;9.126;2023-12-07T03:41:51;5.90;;;4.03;;
21943;SDS011;11136;48.778;9.126;2023-12-07T03:44:16;6.28;;;3.40;;
21943;SDS011;11136;48.778;9.126;2023-12-07T03:46:42;6.75;;;3.70;;
21943;SDS011;11136;48.778;9.126;2023-12-07T03:49:07;6.32;;;4.15;;
21943;SDS011;11136;48.778;9.126;2023-12-07T03:51:32;6.22;;;3.80;;
21943;SDS011;11136;48.778;9.126;2023-12-07T03:53:57;9.68;;;4.60;;
21943;SDS011;11136;48.778;9.126;2023-12-07T03:56:27;5.78;;;4.28;;
21943;SDS011;11136;48.778;9.126;2023-12-07T03:58:53;7.90;;;4.40;;
21943;SDS011;11136;48.778;9.126;2023-12-07T04:01:26;9.38;;;4.53;;
21943;SDS011;11136;48.778;9.126;2023-12-07T04:03:53;5.35;;;4.00;;
21943;SDS011;11136;48.778;9.126;2023-12-07T04:06:20;9.73;;;4.57;;
21943;SDS011;11136;48.778;9.126;2023-12-07T04:08:46;8.10;;;4.32;;
21943;SDS011;11136;48.778;9.126;2023-12-07T04:11:12;7.28;;;4.43;;
21943;SDS011;11136;48.778;9.126;2023-12-07T04:13:37;7.13;;;4.07;;
21943;SDS011;11136;48.778;9.126;2023-12-07T04:16:03;7.50;;;4.60;;
21943;SDS011;11136;48.778;9.126;2023-12-07T04:18:29;6.93;;;4.55;;
21943;SDS011;11136;48.778;9.126;2023-12-07T04:20:54;9.15;;;5.28;;
21943;SDS011;11136;48.778;9.126;2023-12-07T04:23:19;8.50;;;4.90;;
21943;SDS011;11136;48.778;9.126;2023-12-07T04:25:45;11.07;;;5.45;;
21943;SDS011;11136;48.778;9.126;2023-12-07T04:28:10;9.32;;;5.10;;
21943;SDS011;11136;48.778;9.126;2023-12-07T04:30:35;10.25;;;5.95;;
21943;SDS011;11136;48.778;9.126;2023-12-07T04:33:00;6.97;;;4.72;;
21943;SDS011;11136;48.778;9.126;2023-12-07T04:35:30;9.32;;;5.43;;
21943;SDS011;11136;48.778;9.126;2023-12-07T04:37:56;8.63;;;5.75;;
21943;SDS011;11136;48.778;9.126;2023-12-07T04:40:21;8.10;;;5.65;;
21943;SDS011;11136;48.778;9.126;2023-12-07T04:42:47;8.23;;;5.40;;
21943;SDS011;11136;48.778;9.126;2023-12-07T04:45:12;8.20;;;4.97;;
21943;SDS011;11136;48.778;9.126;2023-12-07T04:47:37;9.40;;;6.15;;
21943;SDS011;11136;48.778;9.126;2023-12-07T04:50:03;8.70;;;6.05;;
21943;SDS011;11136;48.778;9.126;2023-12-07T04:52:28;9.20;;;5.35;;
21943;SDS011;11136;48.778;9.126;2023-12-07T04:54:53;8.45;;;5.35;;
21943;SDS011;11136;48.778;9.126;2023-12-07T04:57:19;10.82;;;5.72;;
21943;SDS011;11136;48.778;9.126;2023-12-07T04:59:44;9.25;;;5.25;;
21943;SDS011;11136;48.778;9.126;2023-12-07T05:02:13;10.15;;;5.97;;
21943;SDS011;11136;48.778;9.126;2023-12-07T05:04:42;9.07;;;5.43;;
21943;SDS011;11136;48.778;9.126;2023-12-07T05:07:07;7.85;;;5.18;;
21943;SDS011;11136;48.778;9.126;2023-12-07T05:09:33;11.18;;;6.00;;
21943;SDS011;11136;48.778;9.126;2023-12-07T05:11:58;9.15;;;5.53;;
21943;SDS011;11136;48.778;9.126;2023-12-07T05:14:33;11.05;;;5.38;;
21943;SDS011;11136;48.778;9.126;2023-12-07T05:16:59;8.05;;;5.50;;
21943;SDS011;11136;48.778;9.126;2023-12-07T05:19:25;9.80;;;5.57;;
21943;SDS011;11136;48.778;9.126;2023-12-07T05:21:51;10.85;;;5.63;;
21943;SDS011;11136;48.778;9.126;2023-12-07T05:24:17;9.52;;;5.55;;
21943;SDS011;11136;48.778;9.126;2023-12-07T05:26:43;8.80;;;4.70;;
21943;SDS011;11136;48.778;9.126;2023-12-07T05:29:10;7.45;;;5.63;;
21943;SDS011;11136;48.778;9.126;2023-12-07T05:31:36;7.90;;;5.32;;
21943;SDS011;11136;48.778;9.126;2023-12-07T05:34:01;8.77;;;5.20;;
21943;SDS011;11136;48.778;9.126;2023-12-07T05:36:27;8.25;;;5.20;;
21943;SDS011;11136;48.778;9.126;2023-12-07T05:38:52;7.28;;;4.55;;
21943;SDS011;11136;48.778;9.126;2023-12-07T05:41:17;10.35;;;5.95;;
21943;SDS011;11136;48.778;9.126;2023-12-07T05:43:43;8.73;;;5.25;;
21943;SDS011;11136;48.778;9.126;2023-12-07T05:46:08;14.43;;;5.63;;
21943;SDS011;11136;48.778;9.126;2023-12-07T05:48:34;9.52;;;5.00;;
21943;SDS011;11136;48.778;9.126;2023-12-07T05:51:00;7.60;;;4.72;;
21943;SDS011;11136;48.778;9.126;2023-12-07T05:53:26;9.85;;;5.10;;
21943;SDS011;11136;48.778;9.126;2023-12-07T05:55:52;8.70;;;5.18;;
21943;SDS011;11136;48.778;9.126;2023-12-07T05:58:17;8.60;;;4.65;;
21943;SDS011;11136;48.778;9.126;2023-12-07T06:00:45;7.55;;;5.13;;
21943;SDS011;11136;48.778;9.126;2023-12-07T06:03:12;9.70;;;6.07;;
21943;SDS011;11136;48.778;9.126;2023-12-07T06:05:38;9.40;;;5.88;;
21943;SDS011;11136;48.778;9.126;2023-12-07T06:08:03;8.55;;;5.72;;
21943;SDS011;11136;48.778;9.126;2023-12-07T06:10:29;11.02;;;5.35;;
21943;SDS011;11136;48.778;9.126;2023-12-07T06:12:55;8.13;;;4.90;;
21943;SDS011;11136;48.778;9.126;2023-12-07T06:15:21;8.57;;;5.38;;
21943;SDS011;11136;48.778;9.126;2023-12-07T06:17:47;10.18;;;5.75;;
21943;SDS011;11136;48.778;9.126;2023-12-07T06:20:12;8.85;;;5.78;;
21943;SDS011;11136;48.778;9.126;2023-12-07T06:22:37;6.55;;;5.05;;
21943;SDS011;11136;48.778;9.126;2023-12-07T06:25:03;7.45;;;5.20;;
21943;SDS011;11136;48.778;9.126;2023-12-07T06:27:28;9.63;;;6.60;;
21943;SDS011;11136;48.778;9.126;2023-12-07T06:29:55;11.85;;;6.80;;
21943;SDS011;11136;48.778;9.126;2023-12-07T06:32:20;11.43;;;7.22;;
21943;SDS011;11136;48.778;9.126;2023-12-07T06:34:45;7.80;;;5.65;;
21943;SDS011;11136;48.778;9.126;2023-12-07T06:37:11;8.80;;;5.93;;
21943;SDS011;11136;48.778;9.126;2023-12-07T06:39:36;11.88;;;6.43;;
21943;SDS011;11136;48.778;9.126;2023-12-07T06:42:02;9.25;;;5.50;;
21943;SDS011;11136;48.778;9.126;2023-12-07T06:44:27;9.45;;;5.82;;
21943;SDS011;11136;48.778;9.126;2023-12-07T06:46:53;10.02;;;6.05;;
21943;SDS011;11136;48.778;9.126;2023-12-07T06:49:18;8.30;;;5.72;;
21943;SDS011;11136;48.778;9.126;2023-12-07T06:51:44;12.00;;;7.15;;
21943;SDS011;11136;48.778;9.126;2023-12-07T06:54:09;9.85;;;5.47;;
21943;SDS011;11136;48.778;9.126;2023-12-07T06:56:34;8.75;;;5.90;;
21943;SDS011;11136;48.778;9.126;2023-12-07T06:59:00;10.57;;;5.95;;
21943;SDS011;11136;48.778;9.126;2023-12-07T07:01:25;8.13;;;5.65;;
21943;SDS011;11136;48.778;9.126;2023-12-07T07:03:50;9.57;;;6.15;;
21943;SDS011;11136;48.778;9.126;2023-12-07T07:06:16;14.07;;;6.15;;
21943;SDS011;11136;48.778;9.126;2023-12-07T07:08:41;10.07;;;5.85;;
21943;SDS011;11136;48.778;9.126;2023-12-07T07:11:12;11.88;;;6.18;;
21943;SDS011;11136;48.778;9.126;2023-12-07T07:13:41;8.07;;;5.15;;
21943;SDS011;11136;48.778;9.126;2023-12-07T07:16:09;10.32;;;6.10;;
21943;SDS011;11136;48.778;9.126;2023-12-07T07:18:36;12.65;;;6.60;;
21943;SDS011;11136;48.778;9.126;2023-12-07T07:21:02;8.18;;;5.82;;
21943;SDS011;11136;48.778;9.126;2023-12-07T07:23:29;12.75;;;6.65;;
21943;SDS011;11136;48.778;9.126;2023-12-07T07:25:54;12.23;;;6.75;;
21943;SDS011;11136;48.778;9.126;2023-12-07T07:28:19;11.23;;;6.22;;
21943;SDS011;11136;48.778;9.126;2023-12-07T07:30:46;10.98;;;5.72;;
21943;SDS011;11136;48.778;9.126;2023-12-07T07:33:11;10.05;;;5.53;;
21943;SDS011;11136;48.778;9.126;2023-12-07T07:35:37;10.80;;;6.18;;
21943;SDS011;11136;48.778;9.126;2023-12-07T07:38:04;7.38;;;5.30;;
21943;SDS011;11136;48.778;9.126;2023-12-07T07:40:30;8.63;;;5.75;;
21943;SDS011;11136;48.778;9.126;2023-12-07T07:42:55;9.68;;;5.95;;
21943;SDS011;11136;48.778;9.126;2023-12-07T07:45:20;12.50;;;5.63;;
21943;SDS011;11136;48.778;9.126;2023-12-07T07:47:46;8.55;;;5.75;;
21943;SDS011;11136;48.778;9.126;2023-12-07T07:50:11;11.88;;;6.30;;
21943;SDS011;11136;48.778;9.126;2023-12-07T07:52:39;9.48;;;5.90;;
21943;SDS011;11136;48.778;9.126;2023-12-07T07:55:05;14.48;;;6.53;;
21943;SDS011;11136;48.778;9.126;2023-12-07T07:57:31;16.27;;;7.25;;
21943;SDS011;11136;48.778;9.126;2023-12-07T07:59:58;12.27;;;6.28;;
21943;SDS011;11136;48.778;9.126;2023-12-07T08:02:23;8.88;;;5.78;;
21943;SDS011;11136;48.778;9.126;2023-12-07T08:04:49;11.82;;;6.40;;
21943;SDS011;11136;48.778;9.126;2023-12-07T08:07:16;12.10;;;6.93;;
21943;SDS011;11136;48.778;9.126;2023-12-07T08:09:42;11.40;;;7.25;;
21943;SDS011;11136;48.778;9.126;2023-12-07T08:12:07;10.20;;;6.18;;
21943;SDS011;11136;48.778;9.126;2023-12-07T08:14:35;12.85;;;6.68;;
21943;SDS011;11136;48.778;9.126;2023-12-07T08:17:00;15.57;;;6.57;;
21943;SDS011;11136;48.778;9.126;2023-12-07T08:19:26;10.82;;;6.68;;
21943;SDS011;11136;48.778;9.126;2023-12-07T08:21:51;12.23;;;6.85;;
21943;SDS011;11136;48.778;9.126;2023-12-07T08:24:16;10.30;;;6.22;;
21943;SDS011;11136;48.778;9.126;2023-12-07T08:26:41;12.15;;;6.50;;
21943;SDS011;11136;48.778;9.126;2023-12-07T08:29:07;13.00;;;7.25;;
21943;SDS011;11136;48.778;9.126;2023-12-07T08:31:32;11.88;;;7.43;;
21943;SDS011;11136;48.778;9.126;2023-12-07T08:33:58;12.50;;;7.70;;
21943;SDS011;11136;48.778;9.126;2023-12-07T08:36:23;11.52;;;7.70;;
21943;SDS011;11136;48.778;9.126;2023-12-07T08:38:48;12.30;;;7.90;;
21943;SDS011;11136;48.778;9.126;2023-12-07T08:41:13;12.25;;;7.57;;
21943;SDS011;11136;48.778;9.126;2023-12-07T08:43:39;16.73;;;7.53;;
21943;SDS011;11136;48.778;9.126;2023-12-07T08:46:04;13.88;;;8.13;;
21943;SDS011;11136;48.778;9.126;2023-12-07T08:48:32;12.00;;;7.00;;
21943;SDS011;11136;48.778;9.126;2023-12-07T08:50:57;11.88;;;7.60;;
21943;SDS011;11136;48.778;9.126;2023-12-07T08:53:22;13.55;;;8.35;;
21943;SDS011;11136;48.778;9.126;2023-12-07T08:55:48;16.05;;;8.30;;
21943;SDS011;11136;48.778;9.126;2023-12-07T08:58:13;25.13;;;10.38;;
21943;SDS011;11136;48.778;9.126;2023-12-07T09:00:38;15.77;;;9.43;;
21943;SDS011;11136;48.778;9.126;2023-12-07T09:03:04;18.95;;;9.15;;
21943;SDS011;11136;48.778;9.126;2023-12-07T09:05:29;16.50;;;8.85;;
21943;SDS011;11136;48.778;9.126;2023-12-07T09:07:55;12.27;;;6.97;;
21943;SDS011;11136;48.778;9.126;2023-12-07T09:10:21;14.10;;;6.85;;
21943;SDS011;11136;48.778;9.126;2023-12-07T09:12:46;12.07;;;6.10;;
21943;SDS011;11136;48.778;9.126;2023-12-07T09:15:12;10.13;;;5.65;;
21943;SDS011;11136;48.778;9.126;2023-12-07T09:17:38;9.25;;;6.28;;
21943;SDS011;11136;48.778;9.126;2023-12-07T09:20:04;8.27;;;5.50;;
21943;SDS011;11136;48.778;9.126;2023-12-07T09:22:31;14.70;;;5.82;;
21943;SDS011;11136;48.778;9.126;2023-12-07T09:24:57;9.57;;;5.93;;
21943;SDS011;11136;48.778;9.126;2023-12-07T09:27:22;10.43;;;6.57;;
21943;SDS011;11136;48.778;9.126;2023-12-07T09:29:48;10.05;;;6.75;;
21943;SDS011;11136;48.778;9.126;2023-12-07T09:32:13;10.30;;;6.28;;
21943;SDS011;11136;48.778;9.126;2023-12-07T09:34:39;12.57;;;7.25;;
21943;SDS011;11136;48.778;9.126;2023-12-07T09:37:05;14.45;;;7.25;;
21943;SDS011;11136;48.778;9.126;2023-12-07T09:39:34;11.15;;;6.55;;
21943;SDS011;11136;48.778;9.126;2023-12-07T09:41:59;12.18;;;7.07;;
21943;SDS011;11136;48.778;9.126;2023-12-07T09:44:26;10.00;;;6.20;;
21943;SDS011;11136;48.778;9.126;2023-12-07T09:46:51;8.90;;;4.63;;
21943;SDS011;11136;48.778;9.126;2023-12-07T09:49:17;7.82;;;5.38;;
21943;SDS011;11136;48.778;9.126;2023-12-07T09:51:43;7.43;;;5.28;;
21943;SDS011;11136;48.778;9.126;2023-12-07T09:54:10;9.38;;;5.72;;
21943;SDS011;11136;48.778;9.126;2023-12-07T09:56:36;8.60;;;5.03;;
21943;SDS011;11136;48.778;9.126;2023-12-07T09:59:01;7.03;;;4.57;;
21943;SDS011;11136;48.778;9.126;2023-12-07T10:01:30;7.97;;;4.72;;
21943;SDS011;11136;48.778;9.126;2023-12-07T10:07:01;8.27;;;5.75;;
21943;SDS011;11136;48.778;9.126;2023-12-07T10:09:27;7.97;;;5.20;;
21943;SDS011;11136;48.778;9.126;2023-12-07T10:12:01;7.90;;;5.45;;
21943;SDS011;11136;48.778;9.126;2023-12-07T10:14:28;7.70;;;5.55;;
21943;SDS011;11136;48.778;9.126;2023-12-07T10:16:54;9.88;;;5.95;;
21943;SDS011;11136;48.778;9.126;2023-12-07T10:19:20;6.75;;;4.93;;
21943;SDS011;11136;48.778;9.126;2023-12-07T10:21:50;9.25;;;5.70;;
21943;SDS011;11136;48.778;9.126;2023-12-07T10:24:16;6.55;;;5.47;;
21943;SDS011;11136;48.778;9.126;2023-12-07T10:26:47;11.05;;;5.55;;
21943;SDS011;11136;48.778;9.126;2023-12-07T10:29:14;10.80;;;5.78;;
21943;SDS011;11136;48.778;9.126;2023-12-07T10:31:39;7.80;;;4.80;;
21943;SDS011;11136;48.778;9.126;2023-12-07T10:34:04;9.55;;;5.40;;
21943;SDS011;11136;48.778;9.126;2023-12-07T10:36:30;15.73;;;6.55;;
21943;SDS011;11136;48.778;9.126;2023-12-07T10:38:57;11.73;;;5.10;;
21943;SDS011;11136;48.778;9.126;2023-12-07T10:41:23;14.98;;;6.03;;
21943;SDS011;11136;48.778;9.126;2023-12-07T10:44:03;10.77;;;5.18;;
21943;SDS011;11136;48.778;9.126;2023-12-07T10:46:32;6.95;;;3.83;;
21943;SDS011;11136;48.778;9.126;2023-12-07T10:49:06;5.40;;;3.90;;
21943;SDS011;11136;48.778;9.126;2023-12-07T10:51:40;8.60;;;4.40;;
21943;SDS011;11136;48.778;9.126;2023-12-07T10:54:07;7.03;;;4.80;;
21943;SDS011;11136;48.778;9.126;2023-12-07T10:56:42;11.35;;;4.80;;
21943;SDS011;11136;48.778;9.126;2023-12-07T10:59:10;5.93;;;4.53;;
21943;SDS011;11136;48.778;9.126;2023-12-07T11:01:39;10.10;;;4.80;;
21943;SDS011;11136;48.778;9.126;2023-12-07T11:04:09;7.38;;;3.90;;
21943;SDS011;11136;48.778;9.126;2023-12-07T11:09:06;5.80;;;4.03;;
21943;SDS011;11136;48.778;9.126;2023-12-07T11:11:41;9.93;;;4.57;;
21943;SDS011;11136;48.778;9.126;2023-12-07T11:16:46;5.90;;;4.00;;
21943;SDS011;11136;48.778;9.126;2023-12-07T11:22:07;8.40;;;4.88;;
21943;SDS011;11136;48.778;9.126;2023-12-07T11:24:33;7.28;;;4.85;;
21943;SDS011;11136;48.778;9.126;2023-12-07T11:27:00;5.10;;;3.85;;
21943;SDS011;11136;48.778;9.126;2023-12-07T11:29:31;5.93;;;3.92;;
21943;SDS011;11136;48.778;9.126;2023-12-07T11:32:04;5.88;;;3.38;;
21943;SDS011;11136;48.778;9.126;2023-12-07T11:34:38;4.03;;;3.40;;
21943;SDS011;11136;48.778;9.126;2023-12-07T11:37:08;6.32;;;3.58;;
21943;SDS011;11136;48.778;9.126;2023-12-07T11:39:41;6.38;;;3.30;;
21943;SDS011;11136;48.778;9.126;2023-12-07T11:42:19;4.45;;;3.38;;
21943;SDS011;11136;48.778;9.126;2023-12-07T11:44:48;7.00;;;4.00;;
21943;SDS011;11136;48.778;9.126;2023-12-07T11:47:20;3.58;;;2.85;;
21943;SDS011;11136;48.778;9.126;2023-12-07T11:49:46;5.10;;;3.08;;
21943;SDS011;11136;48.778;9.126;2023-12-07T11:52:21;5.68;;;3.50;;
21943;SDS011;11136;48.778;9.126;2023-12-07T11:54:51;5.13;;;2.97;;
21943;SDS011;11136;48.778;9.126;2023-12-07T11:57:19;3.33;;;2.90;;
21943;SDS011;11136;48.778;9.126;2023-12-07T11:59:45;3.60;;;2.72;;
21943;SDS011;11136;48.778;9.126;2023-12-07T12:02:13;3.30;;;2.33;;
21943;SDS011;11136;48.778;9.126;2023-12-07T12:04:42;3.35;;;2.40;;
21943;SDS011;11136;48.778;9.126;2023-12-07T12:07:08;4.68;;;2.75;;
21943;SDS011;11136;48.778;9.126;2023-12-07T12:09:36;3.85;;;2.75;;
21943;SDS011;11136;48.778;9.126;2023-12-07T12:12:05;5.22;;;2.88;;
21943;SDS011;11136;48.778;9.126;2023-12-07T12:14:31;4.90;;;2.55;;
21943;SDS011;11136;48.778;9.126;2023-12-07T12:17:00;6.90;;;2.78;;
21943;SDS011;11136;48.778;9.126;2023-12-07T12:19:29;4.95;;;3.22;;
21943;SDS011;11136;48.778;9.126;2023-12-07T12:21:56;4.45;;;2.95;;
21943;SDS011;11136;48.778;9.126;2023-12-07T12:24:21;3.35;;;2.22;;
21943;SDS011;11136;48.778;9.126;2023-12-07T12:26:55;4.20;;;2.58;;
21943;SDS011;11136;48.778;9.126;2023-12-07T12:29:50;3.47;;;2.53;;
21943;SDS011;11136;48.778;9.126;2023-12-07T12:32:15;4.35;;;2.97;;
21943;SDS011;11136;48.778;9.126;2023-12-07T12:34:41;4.00;;;2.30;;
21943;SDS011;11136;48.778;9.126;2023-12-07T12:37:09;3.25;;;2.22;;
21943;SDS011;11136;48.778;9.126;2023-12-07T12:39:44;4.55;;;2.20;;
21943;SDS011;11136;48.778;9.126;2023-12-07T12:42:09;2.88;;;2.30;;
21943;SDS011;11136;48.778;9.126;2023-12-07T12:44:42;6.57;;;2.90;;
21943;SDS011;11136;48.778;9.126;2023-12-07T12:47:08;5.43;;;3.15;;
21943;SDS011;11136;48.778;9.126;2023-12-07T12:49:37;4.07;;;3.00;;
21943;SDS011;11136;48.778;9.126;2023-12-07T12:52:04;3.73;;;3.00;;
21943;SDS011;11136;48.778;9.126;2023-12-07T12:54:34;7.90;;;3.85;;
21943;SDS011;11136;48.778;9.126;2023-12-07T12:57:07;5.55;;;3.75;;
21943;SDS011;11136;48.778;9.126;2023-12-07T12:59:41;6.55;;;3.25;;
21943;SDS011;11136;48.778;9.126;2023-12-07T13:02:07;8.52;;;3.45;;
21943;SDS011;11136;48.778;9.126;2023-12-07T13:04:35;5.18;;;3.60;;
21943;SDS011;11136;48.778;9.126;2023-12-07T13:07:00;8.40;;;3.17;;
21943;SDS011;11136;48.778;9.126;2023-12-07T13:09:26;6.10;;;3.85;;
21943;SDS011;11136;48.778;9.126;2023-12-07T13:11:52;6.30;;;3.33;;
21943;SDS011;11136;48.778;9.126;2023-12-07T13:14:20;5.53;;;3.63;;
21943;SDS011;11136;48.778;9.126;2023-12-07T13:16:51;5.75;;;3.75;;
21943;SDS011;11136;48.778;9.126;2023-12-07T13:19:19;6.35;;;3.75;;
21943;SDS011;11136;48.778;9.126;2023-12-07T13:21:47;6.53;;;3.20;;
21943;SDS011;11136;48.778;9.126;2023-12-07T13:24:17;7.13;;;4.10;;
21943;SDS011;11136;48.778;9.126;2023-12-07T13:26:43;4.88;;;3.38;;
21943;SDS011;11136;48.778;9.126;2023-12-07T13:29:09;7.28;;;3.00;;
21943;SDS011;11136;48.778;9.126;2023-12-07T13:31:43;7.47;;;3.63;;
21943;SDS011;11136;48.778;9.126;2023-12-07T13:34:08;8.55;;;3.70;;
21943;SDS011;11136;48.778;9.126;2023-12-07T13:36:34;6.85;;;3.60;;
21943;SDS011;11136;48.778;9.126;2023-12-07T13:39:01;4.30;;;3.50;;
21943;SDS011;11136;48.778;9.126;2023-12-07T13:41:29;6.07;;;2.92;;
21943;SDS011;11136;48.778;9.126;2023-12-07T13:43:55;6.43;;;3.88;;
21943;SDS011;11136;48.778;9.126;2023-12-07T13:46:23;5.25;;;3.58;;
21943;SDS011;11136;48.778;9.126;2023-12-07T13:48:58;5.13;;;3.10;;
21943;SDS011;11136;48.778;9.126;2023-12-07T13:51:26;6.10;;;3.63;;
21943;SDS011;11136;48.778;9.126;2023-12-07T13:53:56;7.60;;;3.95;;
21943;SDS011;11136;48.778;9.126;2023-12-07T13:56:22;6.47;;;4.00;;
21943;SDS011;11136;48.778;9.126;2023-12-07T13:58:48;9.10;;;3.92;;
21943;SDS011;11136;48.778;9.126;2023-12-07T14:01:14;6.57;;;4.03;;
21943;SDS011;11136;48.778;9.126;2023-12-07T14:03:40;6.13;;;4.05;;
21943;SDS011;11136;48.778;9.126;2023-12-07T14:06:05;7.90;;;4.30;;
21943;SDS011;11136;48.778;9.126;2023-12-07T14:08:31;9.57;;;4.25;;
21943;SDS011;11136;48.778;9.126;2023-12-07T14:10:56;11.82;;;4.65;;
21943;SDS011;11136;48.778;9.126;2023-12-07T14:13:22;9.57;;;4.88;;
21943;SDS011;11136;48.778;9.126;2023-12-07T14:15:48;7.55;;;3.85;;
21943;SDS011;11136;48.778;9.126;2023-12-07T14:18:14;8.80;;;4.13;;
21943;SDS011;11136;48.778;9.126;2023-12-07T14:20:42;12.07;;;4.15;;
21943;SDS011;11136;48.778;9.126;2023-12-07T14:23:08;5.65;;;3.55;;
21943;SDS011;11136;48.778;9.126;2023-12-07T14:25:34;11.77;;;3.50;;
21943;SDS011;11136;48.778;9.126;2023-12-07T14:27:59;7.18;;;2.50;;
21943;SDS011;11136;48.778;9.126;2023-12-07T14:30:24;5.05;;;2.65;;
21943;SDS011;11136;48.778;9.126;2023-12-07T14:32:50;4.05;;;2.58;;
21943;SDS011;11136;48.778;9.126;2023-12-07T14:35:18;4.30;;;2.30;;
21943;SDS011;11136;48.778;9.126;2023-12-07T14:37:44;5.30;;;2.40;;
21943;SDS011;11136;48.778;9.126;2023-12-07T14:40:09;5.68;;;2.35;;
21943;SDS011;11136;48.778;9.126;2023-12-07T14:42:35;3.13;;;1.83;;
21943;SDS011;11136;48.778;9.126;2023-12-07T14:45:01;2.60;;;1.85;;
21943;SDS011;11136;48.778;9.126;2023-12-07T14:47:26;9.32;;;2.03;;
21943;SDS011;11136;48.778;9.126;2023-12-07T14:49:51;4.10;;;2.10;;
21943;SDS011;11136;48.778;9.126;2023-12-07T14:52:16;3.78;;;1.58;;